• Join FlightAware (Why Join?)
  • Login
  • US Flag 
 
07:12PM EST


 

Airport Tracker/Info


-or-


 

Live Flight TrackerFlight Track Log ✈ AWE3878 ✈ 20-Apr-2013 ✈ KMYR - KDCA

Flight Track Log - Related Links

Times and Time Zones

All times are in EDT time to prevent confusion due to time zone crossing. See the AWE3878 flight status page for this flight to view local times or setup timezone preferences in your user account.

Time Position Orientation Groundspeed Altitude Reporting Facility
EDT Latitude Longitude Course Direction KTS MPH feet Rate Location/Type
11:40AM 33.8306 -78.6635 50° Northeast  Level FlightAware Approximate
11:41AM 33.8887 -78.5805 50° Northeast  Level FlightAware Approximate
11:41AM 33.8794 -78.8903 56° Northeast 297 342 7,800  Level Jacksonville Center
11:42AM 33.9464 -78.4971 51° Northeast  Level FlightAware Approximate
11:42AM 33.9222 -78.7983 61° Northeast 307 353 10,000  Level Jacksonville Center
11:43AM 34.0029 -78.4124 51° Northeast  Level FlightAware Approximate
11:43AM 33.9708 -78.6883 62° Northeast 339 390 10,300  Level Jacksonville Center
11:44AM 34.0519 -78.3147 40° Northeast  Level FlightAware Approximate
11:44AM 34.0275 -78.5753 59° Northeast 372 428 12,300  Level Jacksonville Center
11:45AM 34.1186 -78.2333 56° Northeast  Level FlightAware Approximate
11:46AM 34.1719 -78.1372 56° Northeast  Level FlightAware Approximate
11:46AM 34.1447 -78.3269 60° Northeast 406 467 16,900  Level Washington Center
11:47AM 34.2061 -78.1958 60° Northeast 406 467 18,000 1,200 Climbing Washington Center
11:48AM 34.2650 -78.0697 61° Northeast 406 467 19,300 1,200 Climbing Washington Center
11:49AM 34.3239 -77.9433 61° Northeast 419 482 20,500 1,080 Climbing Washington Center
11:50AM 34.4175 -77.8553 38° Northeast 419 482 21,500 960 Climbing Washington Center
11:51AM 34.5344 -77.8508 North 393 452 22,500 900 Climbing Washington Center
11:52AM 34.6556 -77.8442 North 400 460 23,400 840 Climbing Washington Center
11:53AM 34.7789 -77.8325 North 421 484 24,200 780 Climbing Washington Center
11:54AM 34.8981 -77.8156 North 430 495 25,000 360 Climbing Washington Center
11:55AM 35.0256 -77.8036 North 442 509 25,000  Level Washington Center
11:56AM 35.1511 -77.7894 North 447 514 25,000  Level Washington Center
11:57AM 35.2744 -77.7800 North 442 509 25,000  Level Washington Center
11:58AM 35.3978 -77.7656 North 442 509 25,000  Level Washington Center
11:59AM 35.5086 -77.7533 North 449 517 25,000  Level Washington Center
12:00PM 35.6167 -77.7792 349° North 411 473 25,000  Level Washington Center
12:01PM 35.7094 -77.8303 336° Northwest 378 435 25,000  Level Washington Center
12:02PM 35.8025 -77.8817 336° Northwest 373 429 25,000  Level Washington Center
12:03PM 35.9175 -77.8592 North 373 429 25,000  Level Washington Center
12:04PM 36.0372 -77.8164 16° North 404 465 25,000  Level Washington Center
12:05PM 36.1592 -77.7786 14° North 426 490 25,000  Level Washington Center
12:06PM 36.2808 -77.7358 16° North 439 505 25,000  Level Washington Center
12:07PM 36.4047 -77.6953 15° North 449 517 25,000  Level Washington Center
12:08PM 36.5264 -77.6519 16° North 449 517 25,000  Level Washington Center
12:09PM 36.6608 -77.6089 14° North 467 537 25,000  Level Washington Center
12:10PM 36.7969 -77.5631 15° North 482 555 25,000  Level Washington Center
12:11PM 36.9394 -77.5253 12° North 503 579 25,000  Level Washington Center
12:12PM 37.0842 -77.4847 13° North 515 593 25,000  Level Washington Center
12:13PM 37.2286 -77.4464 12° North 526 605 25,000  Level Washington Center
12:14PM 37.3753 -77.4056 12° North 531 611 25,000 -1,200 Level Washington Center
12:15PM 37.5197 -77.3672 12° North 531 611 22,700 -1,500 Descending Washington Center
12:16PM 37.6558 -77.3283 13° North 514 592 22,000 -1,200 Descending Washington Center
12:17PM 37.7900 -77.2944 11° North 498 573 20,300 -2,160 Descending Washington Center
12:18PM 37.9133 -77.2606 12° North 474 545 17,700 -2,940 Descending Washington Center
12:19PM 38.0389 -77.2317 10° North 433 498 14,500 -3,060 Descending Washington Center
12:20PM 38.1478 -77.2022 12° North 407 468 11,600 -2,280 Descending Washington Center
12:21PM 38.2378 -77.1725 15° North 382 440 10,000 -1,080 Descending Washington Center
12:22PM 38.3319 -77.1453 13° North 343 395 9,500 -900 Descending Washington Center
12:23PM 38.4056 -77.1047 23° Northeast 306 352 8,300 -1,560 Descending Washington Center
12:24PM 38.4767 -77.0928 North 270 311 6,400 -2,040 Descending Washington Center
12:25PM 38.5475 -77.0836 North 258 297 4,300 -1,800 Descending Washington Center
12:26PM 38.6144 -77.0664 11° North 258 297 2,800 -960 Descending Washington Center
12:27PM 38.6667 -77.0500 14° North 236 272 2,500 -360 Descending Potomac TRACON